createdAt,value
2023-04-05T00:00:40.335Z,9.20
2023-04-05T00:03:10.477Z,8.20
2023-04-05T00:05:38.762Z,6.93
2023-04-05T00:08:13.468Z,10.13
2023-04-05T00:10:52.684Z,6.90
2023-04-05T00:13:20.708Z,6.07
2023-04-05T00:15:51.240Z,6.23
2023-04-05T00:18:26.086Z,8.53
2023-04-05T00:20:55.533Z,6.67
2023-04-05T00:23:27.259Z,7.57
2023-04-05T00:25:56.314Z,6.47
2023-04-05T00:28:27.758Z,7.73
2023-04-05T00:30:56.890Z,8.93
2023-04-05T00:33:24.841Z,7.67
2023-04-05T00:35:52.967Z,5.93
2023-04-05T00:38:20.894Z,6.57
2023-04-05T00:40:52.344Z,7.10
2023-04-05T00:43:22.453Z,7.80
2023-04-05T00:45:55.212Z,5.87
2023-04-05T00:48:26.423Z,6.30
2023-04-05T00:50:55.901Z,8.97
2023-04-05T00:53:24.006Z,6.80
2023-04-05T00:55:54.386Z,7.73
2023-04-05T00:58:23.763Z,11.30
2023-04-05T01:01:01.943Z,8.87
2023-04-05T01:03:34.649Z,7.47
2023-04-05T01:06:12.816Z,7.43
2023-04-05T01:08:54.308Z,7.00
2023-04-05T01:11:26.344Z,5.50
2023-04-05T01:14:00.724Z,6.40
2023-04-05T01:16:30.889Z,7.07
2023-04-05T01:18:59.927Z,7.10
2023-04-05T01:21:48.762Z,6.43
2023-04-05T01:24:29.006Z,7.77
2023-04-05T01:27:11.523Z,8.17
2023-04-05T01:29:54.822Z,8.10
2023-04-05T01:32:31.718Z,6.07
2023-04-05T01:35:08.638Z,6.40
2023-04-05T01:37:39.808Z,7.13
2023-04-05T01:40:10.057Z,9.23
2023-04-05T01:42:38.387Z,8.43
2023-04-05T01:45:10.620Z,9.30
2023-04-05T01:47:40.058Z,7.03
2023-04-05T01:50:09.944Z,7.50
2023-04-05T01:52:38.099Z,11.23
2023-04-05T01:55:06.789Z,10.30
2023-04-05T01:57:36.888Z,9.20
2023-04-05T02:00:14.574Z,9.20
2023-04-05T02:02:47.540Z,8.67
2023-04-05T02:05:17.921Z,8.77
2023-04-05T02:07:47.282Z,8.63
2023-04-05T02:10:16.061Z,10.37
2023-04-05T02:12:45.599Z,9.93
2023-04-05T02:15:16.460Z,9.37
2023-04-05T02:17:46.248Z,10.13
2023-04-05T02:20:16.690Z,9.50
2023-04-05T02:22:46.092Z,7.90
2023-04-05T02:25:16.711Z,8.53
2023-04-05T02:27:48.731Z,13.43
2023-04-05T02:30:18.206Z,9.70
2023-04-05T02:32:47.034Z,10.83
2023-04-05T02:35:18.571Z,8.03
2023-04-05T02:37:49.370Z,9.47
2023-04-05T02:40:17.719Z,8.77
2023-04-05T02:42:47.454Z,12.37
2023-04-05T02:45:17.268Z,8.40
2023-04-05T02:47:46.577Z,13.67
2023-04-05T02:50:15.354Z,9.83
2023-04-05T02:52:45.411Z,10.87
2023-04-05T02:55:15.985Z,7.67
2023-04-05T02:57:46.685Z,9.17
2023-04-05T03:00:18.936Z,7.23
2023-04-05T03:02:49.118Z,8.13
2023-04-05T03:05:20.142Z,11.37
2023-04-05T03:07:54.832Z,7.47
2023-04-05T03:10:24.983Z,9.90
2023-04-05T03:12:54.274Z,11.37
2023-04-05T03:15:23.452Z,10.40
2023-04-05T03:17:56.665Z,12.63
2023-04-05T03:20:27.686Z,8.90
2023-04-05T03:22:56.318Z,10.77
2023-04-05T03:25:28.726Z,9.70
2023-04-05T03:27:58.153Z,10.10
2023-04-05T03:30:29.654Z,10.03
2023-04-05T03:33:01.909Z,10.10
2023-04-05T03:35:34.128Z,9.13
2023-04-05T03:38:06.797Z,14.03
2023-04-05T03:40:35.637Z,14.27
2023-04-05T03:43:03.601Z,8.67
2023-04-05T03:45:34.220Z,9.57
2023-04-05T03:48:06.620Z,11.37
2023-04-05T03:50:34.687Z,9.63
2023-04-05T03:53:04.325Z,12.60
2023-04-05T03:55:36.246Z,10.63
2023-04-05T03:58:08.529Z,9.00
2023-04-05T04:00:39.613Z,7.80
2023-04-05T04:03:14.221Z,9.33
2023-04-05T04:05:42.500Z,8.73
2023-04-05T04:08:11.885Z,8.27
2023-04-05T04:10:44.125Z,11.27
2023-04-05T04:13:12.242Z,10.47
2023-04-05T04:15:42.379Z,8.03
2023-04-05T04:18:18.225Z,8.00
2023-04-05T04:20:48.029Z,10.00
2023-04-05T04:23:17.302Z,9.70
2023-04-05T04:25:46.534Z,9.70
2023-04-05T04:28:19.660Z,14.13
2023-04-05T04:30:48.726Z,9.17
2023-04-05T04:33:20.116Z,15.70
2023-04-05T04:35:50.737Z,11.20
2023-04-05T04:38:20.832Z,9.77
2023-04-05T04:40:51.251Z,12.77
2023-04-05T04:43:27.252Z,9.83
2023-04-05T04:45:57.636Z,13.80
2023-04-05T04:48:28.577Z,9.63
2023-04-05T04:50:57.505Z,11.20
2023-04-05T04:53:26.031Z,10.53
2023-04-05T04:55:55.388Z,9.63
2023-04-05T04:58:23.443Z,9.50
2023-04-05T05:00:55.919Z,11.17
2023-04-05T05:03:26.829Z,13.33
2023-04-05T05:05:58.768Z,15.43
2023-04-05T05:08:27.807Z,10.37
2023-04-05T05:10:56.570Z,10.57
2023-04-05T05:13:29.943Z,10.63
2023-04-05T05:16:02.237Z,10.63
2023-04-05T05:18:33.725Z,11.83
2023-04-05T05:21:08.148Z,13.87
2023-04-05T05:23:40.581Z,11.37
2023-04-05T05:26:09.105Z,13.03
2023-04-05T05:28:40.624Z,10.20
2023-04-05T05:31:09.045Z,10.93
2023-04-05T05:33:37.474Z,10.50
2023-04-05T05:36:09.398Z,7.50
2023-04-05T05:38:37.543Z,10.57
2023-04-05T05:41:06.022Z,9.60
2023-04-05T05:43:34.295Z,9.63
2023-04-05T05:46:07.639Z,11.97
2023-04-05T05:48:38.448Z,9.27
2023-04-05T05:51:17.710Z,11.17
2023-04-05T05:53:47.187Z,8.73
2023-04-05T05:56:17.217Z,9.73
2023-04-05T05:58:47.289Z,7.83
2023-04-05T06:01:15.544Z,12.03
2023-04-05T06:03:44.332Z,15.50
2023-04-05T06:06:14.969Z,9.30
2023-04-05T06:08:44.378Z,8.37
2023-04-05T06:11:22.845Z,8.07
2023-04-05T06:13:52.617Z,11.07
2023-04-05T06:16:23.007Z,9.20
2023-04-05T06:18:52.277Z,8.73
2023-04-05T06:21:22.577Z,11.60
2023-04-05T06:23:54.350Z,11.83
2023-04-05T06:26:27.150Z,13.87
2023-04-05T06:28:55.901Z,13.53
2023-04-05T06:31:28.701Z,9.50
2023-04-05T06:33:58.892Z,9.80
2023-04-05T06:36:34.376Z,8.67
2023-04-05T06:39:03.214Z,9.30
2023-04-05T06:41:31.518Z,11.83
2023-04-05T06:44:09.332Z,11.30
2023-04-05T06:46:41.776Z,8.57
2023-04-05T06:49:11.143Z,8.27
2023-04-05T06:51:42.393Z,6.27
2023-04-05T06:54:12.456Z,7.57
2023-04-05T06:56:40.542Z,7.17
2023-04-05T06:59:09.092Z,9.10
2023-04-05T07:01:37.596Z,7.97
2023-04-05T07:04:06.189Z,15.20
2023-04-05T07:06:39.397Z,7.43
2023-04-05T07:09:09.724Z,6.77
2023-04-05T07:11:42.610Z,6.87
2023-04-05T07:14:11.157Z,7.10
2023-04-05T07:16:42.906Z,6.23
2023-04-05T07:19:12.364Z,7.00
2023-04-05T07:21:41.542Z,5.30
2023-04-05T07:24:15.827Z,5.33
2023-04-05T07:26:43.954Z,7.17
2023-04-05T07:29:13.415Z,4.93
2023-04-05T07:31:42.894Z,5.93
2023-04-05T07:34:12.201Z,8.63
2023-04-05T07:36:41.008Z,7.83
2023-04-05T07:39:10.731Z,6.03
2023-04-05T07:41:40.202Z,6.17
2023-04-05T07:44:09.442Z,14.23
2023-04-05T07:46:38.688Z,6.30
2023-04-05T07:49:08.341Z,8.73
2023-04-05T07:51:38.562Z,7.93
2023-04-05T07:54:15.685Z,7.20
2023-04-05T07:56:46.169Z,6.33
2023-04-05T07:59:15.032Z,6.10
2023-04-05T08:01:46.353Z,7.90
2023-04-05T08:04:15.015Z,9.43
2023-04-05T08:06:46.203Z,10.67
2023-04-05T08:09:17.306Z,6.93
2023-04-05T08:11:47.305Z,7.40
2023-04-05T08:14:18.043Z,6.63
2023-04-05T08:16:53.329Z,6.03
2023-04-05T08:19:22.950Z,6.40
2023-04-05T08:21:55.064Z,6.93
2023-04-05T08:24:25.403Z,6.17
2023-04-05T08:26:56.371Z,20.87
2023-04-05T08:29:28.045Z,7.90
2023-04-05T08:31:58.513Z,5.77
2023-04-05T08:34:28.127Z,6.17
2023-04-05T08:36:59.555Z,5.43
2023-04-05T08:39:30.836Z,5.37
2023-04-05T08:42:04.920Z,5.77
2023-04-05T08:44:33.198Z,4.43
2023-04-05T08:47:02.686Z,6.17
2023-04-05T08:49:31.441Z,8.27
2023-04-05T08:52:03.324Z,3.73
2023-04-05T08:54:33.437Z,4.00
2023-04-05T08:57:08.833Z,6.33
2023-04-05T08:59:40.987Z,5.27
2023-04-05T09:02:16.478Z,7.37
2023-04-05T09:04:53.124Z,5.77
2023-04-05T09:07:26.320Z,6.87
2023-04-05T09:10:00.796Z,4.40
2023-04-05T09:12:34.745Z,8.50
2023-04-05T09:15:05.143Z,7.77
2023-04-05T09:17:36.669Z,4.77
2023-04-05T09:20:08.045Z,8.33
2023-04-05T09:22:45.519Z,5.67
2023-04-05T09:25:36.769Z,5.03
2023-04-05T09:28:06.665Z,7.33
2023-04-05T09:30:37.042Z,6.43
2023-04-05T09:33:10.439Z,6.80
2023-04-05T09:35:40.439Z,7.43
2023-04-05T09:38:10.398Z,5.20
2023-04-05T09:40:45.201Z,5.00
2023-04-05T09:43:34.439Z,7.00
2023-04-05T09:46:03.320Z,4.87
2023-04-05T09:48:49.560Z,4.67
2023-04-05T09:51:21.065Z,5.27
2023-04-05T09:54:01.297Z,5.50
2023-04-05T09:56:33.528Z,4.53
2023-04-05T09:59:10.877Z,4.23
2023-04-05T10:01:42.478Z,5.90
2023-04-05T10:04:20.544Z,6.27
2023-04-05T10:06:48.708Z,4.37
2023-04-05T10:09:19.765Z,4.20
2023-04-05T10:12:02.349Z,6.30
2023-04-05T10:14:33.221Z,5.00
2023-04-05T10:17:10.503Z,6.97
2023-04-05T10:19:59.028Z,5.20
2023-04-05T10:22:42.478Z,4.43
2023-04-05T10:25:18.628Z,5.83
2023-04-05T10:27:54.876Z,4.93
2023-04-05T10:30:26.490Z,5.63
2023-04-05T10:33:07.543Z,5.23
2023-04-05T10:35:45.679Z,10.00
2023-04-05T10:38:25.572Z,5.07
2023-04-05T10:40:56.870Z,4.60
2023-04-05T10:43:28.612Z,4.90
2023-04-05T10:46:00.630Z,5.83
2023-04-05T10:48:46.622Z,4.30
2023-04-05T10:51:18.125Z,5.80
2023-04-05T10:53:50.616Z,4.60
2023-04-05T10:56:32.158Z,6.10
2023-04-05T10:59:03.254Z,8.83
2023-04-05T11:01:34.610Z,4.80
2023-04-05T11:04:12.882Z,4.37
2023-04-05T11:06:48.055Z,8.37
2023-04-05T11:09:21.442Z,4.63
2023-04-05T11:11:54.009Z,4.37
2023-04-05T11:14:26.129Z,7.30
2023-04-05T11:16:59.939Z,4.83
2023-04-05T11:19:53.872Z,5.73
2023-04-05T11:22:29.824Z,5.87
2023-04-05T11:25:03.412Z,5.60
2023-04-05T11:27:33.308Z,6.67
2023-04-05T11:30:07.504Z,5.70
2023-04-05T11:32:43.719Z,3.63
2023-04-05T11:35:17.778Z,4.77
2023-04-05T11:38:24.230Z,6.00
2023-04-05T11:41:06.326Z,6.33
2023-04-05T11:43:38.380Z,8.00
2023-04-05T11:46:09.334Z,5.73
2023-04-05T11:48:37.722Z,7.00
2023-04-05T11:51:11.761Z,5.63
2023-04-05T11:53:47.200Z,6.73
2023-04-05T11:56:16.218Z,5.20
2023-04-05T11:58:53.121Z,5.13
2023-04-05T12:01:23.995Z,5.13
2023-04-05T12:03:55.632Z,13.23
2023-04-05T12:06:26.626Z,5.60
2023-04-05T12:08:56.646Z,5.40
2023-04-05T12:11:32.404Z,4.30
2023-04-05T12:14:04.414Z,4.53
2023-04-05T12:16:35.366Z,4.43
2023-04-05T12:19:03.401Z,4.00
2023-04-05T12:21:32.600Z,4.93
2023-04-05T12:24:01.257Z,4.27
2023-04-05T12:26:35.722Z,4.97
2023-04-05T12:29:06.259Z,3.37
2023-04-05T12:31:56.197Z,6.50
2023-04-05T12:34:30.535Z,4.20
2023-04-05T12:37:03.682Z,6.00
2023-04-05T12:39:34.528Z,4.10
2023-04-05T12:42:03.948Z,6.07
2023-04-05T12:44:32.818Z,5.00
2023-04-05T12:47:03.586Z,3.70
2023-04-05T12:49:36.507Z,4.57
2023-04-05T12:52:05.782Z,4.03
2023-04-05T12:54:35.249Z,4.87
2023-04-05T12:57:09.155Z,5.80
2023-04-05T12:59:40.124Z,3.90
2023-04-05T13:02:10.059Z,5.67
2023-04-05T13:04:40.416Z,5.73
2023-04-05T13:07:08.284Z,4.63
2023-04-05T13:09:44.975Z,3.50
2023-04-05T13:12:14.293Z,4.67
2023-04-05T13:14:43.638Z,5.07
2023-04-05T13:17:15.142Z,4.00
2023-04-05T13:19:47.281Z,5.40
2023-04-05T13:22:17.203Z,3.57
2023-04-05T13:24:45.863Z,3.43
2023-04-05T13:27:15.071Z,6.23
2023-04-05T13:29:43.748Z,5.30
2023-04-05T13:32:15.206Z,3.33
2023-04-05T13:34:43.399Z,3.80
2023-04-05T13:37:15.053Z,3.40
2023-04-05T13:39:45.445Z,3.43
2023-04-05T13:42:13.921Z,3.10
2023-04-05T13:44:44.560Z,6.03
2023-04-05T13:47:17.856Z,4.53
2023-04-05T13:49:48.985Z,4.60
2023-04-05T13:52:18.412Z,3.50
2023-04-05T13:54:46.445Z,4.10
2023-04-05T13:57:15.485Z,3.77
2023-04-05T13:59:43.916Z,4.43
2023-04-05T14:02:12.560Z,4.97
2023-04-05T14:04:42.816Z,6.20
2023-04-05T14:07:11.510Z,4.50
2023-04-05T14:09:40.069Z,4.30
2023-04-05T14:12:08.636Z,5.17
2023-04-05T14:14:36.982Z,3.53
2023-04-05T14:17:10.042Z,4.27
2023-04-05T14:19:38.474Z,4.33
2023-04-05T14:22:09.190Z,3.70
2023-04-05T14:24:46.506Z,4.63
2023-04-05T14:27:16.951Z,3.17
2023-04-05T14:29:46.808Z,6.50
2023-04-05T14:32:16.220Z,4.20
2023-04-05T14:34:46.021Z,4.87
2023-04-05T14:37:20.450Z,3.53
2023-04-05T14:39:50.481Z,3.07
2023-04-05T14:42:23.836Z,3.23
2023-04-05T14:44:56.812Z,3.97
2023-04-05T14:47:25.146Z,3.40
2023-04-05T14:49:54.528Z,3.33
2023-04-05T14:52:23.993Z,3.40
2023-04-05T14:54:53.097Z,3.20
2023-04-05T14:57:21.699Z,3.90
2023-04-05T14:59:53.608Z,4.40
2023-04-05T15:02:22.049Z,3.17
2023-04-05T15:04:51.087Z,3.90
2023-04-05T15:07:20.821Z,3.13
2023-04-05T15:09:51.989Z,2.87
2023-04-05T15:12:21.635Z,4.70
2023-04-05T15:14:52.585Z,4.43
2023-04-05T15:17:21.148Z,3.73
2023-04-05T15:19:50.719Z,2.40
2023-04-05T15:22:20.840Z,2.93
2023-04-05T15:24:54.629Z,4.43
2023-04-05T15:27:23.407Z,4.80
2023-04-05T15:29:52.294Z,3.83
2023-04-05T15:32:23.598Z,3.23
2023-04-05T15:34:51.648Z,2.90
2023-04-05T15:37:22.758Z,3.73
2023-04-05T15:39:51.677Z,3.40
2023-04-05T15:42:26.361Z,3.63
2023-04-05T15:44:58.117Z,3.30
2023-04-05T15:47:26.932Z,3.73
2023-04-05T15:49:56.324Z,3.47
2023-04-05T15:52:24.735Z,4.77
2023-04-05T15:54:53.784Z,4.90
2023-04-05T15:57:24.798Z,5.70
2023-04-05T16:00:02.216Z,4.87
2023-04-05T16:02:33.962Z,5.60
2023-04-05T16:05:06.364Z,4.70
2023-04-05T16:07:36.292Z,4.43
2023-04-05T16:10:08.630Z,5.40
2023-04-05T16:12:38.021Z,4.50
2023-04-05T16:15:08.769Z,4.40
2023-04-05T16:17:37.989Z,6.50
2023-04-05T16:20:08.073Z,3.50
2023-04-05T16:22:39.383Z,4.00
2023-04-05T16:25:08.645Z,4.33
2023-04-05T16:27:37.449Z,4.33
2023-04-05T16:30:09.793Z,3.37
2023-04-05T16:32:38.415Z,6.27
2023-04-05T16:35:08.907Z,5.70
2023-04-05T16:37:42.889Z,4.03
2023-04-05T16:40:14.052Z,4.07
2023-04-05T16:42:42.164Z,3.70
2023-04-05T16:45:13.711Z,6.90
2023-04-05T16:47:43.552Z,4.73
2023-04-05T16:50:13.138Z,5.57
2023-04-05T16:52:41.407Z,5.03
2023-04-05T16:55:15.687Z,3.70
2023-04-05T16:57:43.847Z,5.30
2023-04-05T17:00:17.752Z,3.97
2023-04-05T17:02:49.500Z,6.23
2023-04-05T17:05:19.066Z,4.53
2023-04-05T17:07:53.161Z,5.20
2023-04-05T17:10:23.247Z,4.80
2023-04-05T17:13:00.927Z,3.80
2023-04-05T17:15:31.155Z,4.33
2023-04-05T17:18:09.546Z,4.80
2023-04-05T17:20:39.235Z,6.40
2023-04-05T17:23:16.999Z,5.93
2023-04-05T17:25:49.328Z,3.73
2023-04-05T17:28:18.742Z,7.43
2023-04-05T17:30:55.488Z,3.83
2023-04-05T17:33:24.016Z,6.00
2023-04-05T17:35:53.403Z,6.23
2023-04-05T17:38:22.603Z,6.77
2023-04-05T17:40:56.431Z,3.97
2023-04-05T17:43:27.286Z,4.90
2023-04-05T17:45:58.097Z,4.47
2023-04-05T17:48:27.186Z,3.23
2023-04-05T17:50:57.114Z,4.47
2023-04-05T17:53:25.176Z,3.53
2023-04-05T17:55:57.365Z,6.23
2023-04-05T17:58:25.436Z,7.60
2023-04-05T18:00:54.342Z,12.83
2023-04-05T18:03:28.612Z,8.40
2023-04-05T18:05:57.561Z,8.27
2023-04-05T18:08:26.965Z,6.80
2023-04-05T18:11:02.201Z,8.37
2023-04-05T18:13:36.487Z,6.43
2023-04-05T18:16:07.837Z,5.30
2023-04-05T18:18:42.620Z,8.70
2023-04-05T18:21:10.599Z,6.53
2023-04-05T18:23:39.440Z,4.40
2023-04-05T18:26:09.162Z,6.17
2023-04-05T18:28:38.429Z,6.53
2023-04-05T18:31:10.216Z,5.63
2023-04-05T18:33:41.584Z,8.87
2023-04-05T18:36:09.563Z,8.73
2023-04-05T18:38:38.846Z,9.07
2023-04-05T18:41:10.906Z,8.93
2023-04-05T18:43:41.171Z,7.87
2023-04-05T18:46:21.253Z,10.97
2023-04-05T18:48:54.994Z,19.30
2023-04-05T18:51:27.211Z,14.43
2023-04-05T18:53:56.531Z,13.87
2023-04-05T18:56:32.254Z,13.37
2023-04-05T18:59:09.966Z,13.93
2023-04-05T19:01:42.718Z,13.33
2023-04-05T19:04:13.542Z,17.13
2023-04-05T19:06:41.873Z,15.13
2023-04-05T19:09:12.527Z,13.47
2023-04-05T19:11:42.491Z,15.00
2023-04-05T19:14:16.687Z,19.00
2023-04-05T19:16:45.670Z,17.23
2023-04-05T19:19:17.407Z,19.27
2023-04-05T19:21:45.716Z,20.17
2023-04-05T19:24:15.486Z,18.30
2023-04-05T19:26:47.696Z,18.50
2023-04-05T19:29:22.424Z,19.83
2023-04-05T19:31:51.111Z,18.53
2023-04-05T19:34:29.334Z,16.70
2023-04-05T19:37:01.882Z,17.50
2023-04-05T19:39:30.101Z,15.40
2023-04-05T19:42:04.549Z,16.13
2023-04-05T19:44:49.983Z,20.80
2023-04-05T19:47:23.513Z,17.00
2023-04-05T19:49:58.497Z,18.30
2023-04-05T19:52:41.656Z,19.27
2023-04-05T19:55:30.644Z,18.40
2023-04-05T19:58:05.412Z,16.03
2023-04-05T20:00:37.576Z,19.20
2023-04-05T20:03:29.646Z,14.00
2023-04-05T20:06:18.355Z,16.97
2023-04-05T20:08:49.017Z,23.60
2023-04-05T20:11:21.393Z,24.63
2023-04-05T20:13:55.268Z,32.07
2023-04-05T20:16:29.340Z,32.20
2023-04-05T20:19:08.977Z,22.87
2023-04-05T20:21:39.942Z,18.97
2023-04-05T20:24:10.912Z,18.50
2023-04-05T20:26:45.012Z,25.20
2023-04-05T20:29:18.310Z,15.70
2023-04-05T20:31:48.057Z,19.20
2023-04-05T20:34:21.125Z,17.87
2023-04-05T20:36:53.429Z,20.07
2023-04-05T20:39:27.406Z,21.97
2023-04-05T20:41:56.928Z,18.47
2023-04-05T20:44:27.410Z,18.97
2023-04-05T20:46:57.691Z,15.83
2023-04-05T20:49:28.384Z,17.40
2023-04-05T20:52:00.051Z,20.47
2023-04-05T20:54:28.411Z,20.27
2023-04-05T20:56:57.084Z,23.73
2023-04-05T20:59:33.957Z,19.70
2023-04-05T21:02:07.043Z,17.37
2023-04-05T21:04:44.223Z,11.90
2023-04-05T21:07:15.306Z,20.33
2023-04-05T21:09:43.683Z,11.97
2023-04-05T21:12:12.765Z,9.87
2023-04-05T21:14:41.129Z,11.10
2023-04-05T21:17:10.884Z,11.40
2023-04-05T21:19:39.831Z,17.30
2023-04-05T21:22:08.504Z,17.23
2023-04-05T21:24:47.002Z,10.37
2023-04-05T21:27:15.755Z,15.63
2023-04-05T21:29:46.339Z,12.17
2023-04-05T21:32:15.869Z,11.53
2023-04-05T21:34:45.239Z,11.37
2023-04-05T21:37:16.666Z,13.77
2023-04-05T21:39:48.037Z,11.03
2023-04-05T21:42:17.743Z,14.00
2023-04-05T21:44:46.626Z,13.30
2023-04-05T21:47:17.892Z,17.93
2023-04-05T21:49:47.160Z,11.53
2023-04-05T21:52:15.490Z,12.73
2023-04-05T21:54:46.117Z,10.87
2023-04-05T21:57:14.857Z,14.50
2023-04-05T21:59:47.720Z,13.17
2023-04-05T22:02:16.367Z,15.83
2023-04-05T22:04:48.450Z,12.40
2023-04-05T22:07:22.030Z,15.53
2023-04-05T22:09:55.749Z,10.63
2023-04-05T22:12:25.756Z,14.03
2023-04-05T22:14:56.883Z,13.03
2023-04-05T22:17:27.881Z,13.27
2023-04-05T22:19:56.024Z,12.97
2023-04-05T22:22:25.121Z,12.90
2023-04-05T22:24:56.819Z,15.13
2023-04-05T22:27:29.371Z,12.37
2023-04-05T22:29:58.773Z,14.17
2023-04-05T22:32:27.221Z,15.40
2023-04-05T22:34:57.407Z,12.23
2023-04-05T22:37:27.035Z,15.33
2023-04-05T22:39:57.846Z,14.47
2023-04-05T22:42:27.659Z,13.43
2023-04-05T22:44:59.705Z,12.93
2023-04-05T22:47:27.753Z,13.77
2023-04-05T22:49:58.288Z,16.77
2023-04-05T22:52:27.593Z,12.67
2023-04-05T22:54:57.587Z,18.07
2023-04-05T22:57:26.366Z,14.00
2023-04-05T22:59:54.478Z,15.67
2023-04-05T23:02:25.113Z,17.93
2023-04-05T23:04:55.150Z,16.30
2023-04-05T23:07:23.332Z,14.87
2023-04-05T23:09:57.177Z,15.70
2023-04-05T23:12:27.326Z,17.13
2023-04-05T23:14:56.484Z,15.47
2023-04-05T23:17:25.807Z,14.80
2023-04-05T23:19:57.461Z,14.13
2023-04-05T23:22:26.775Z,15.03
2023-04-05T23:24:54.821Z,13.27
2023-04-05T23:27:23.217Z,16.13
2023-04-05T23:29:52.807Z,14.17
2023-04-05T23:32:24.458Z,13.23
2023-04-05T23:34:53.921Z,15.53
2023-04-05T23:37:22.778Z,20.07
2023-04-05T23:39:50.840Z,16.33
2023-04-05T23:42:20.739Z,12.93
2023-04-05T23:44:50.096Z,18.00
2023-04-05T23:47:20.101Z,20.27
2023-04-05T23:49:48.751Z,17.57
2023-04-05T23:52:19.589Z,14.53
2023-04-05T23:54:48.140Z,24.60
2023-04-05T23:57:18.348Z,15.40
2023-04-05T23:59:50.998Z,15.67
